createdAt,value
2018-04-09T00:01:56.029Z,27.50
2018-04-09T00:04:23.510Z,27.17
2018-04-09T00:06:50.922Z,26.80
2018-04-09T00:09:18.379Z,27.30
2018-04-09T00:11:45.825Z,27.70
2018-04-09T00:14:13.268Z,27.40
2018-04-09T00:16:41.478Z,27.52
2018-04-09T00:19:08.917Z,27.47
2018-04-09T00:21:36.364Z,27.20
2018-04-09T00:24:04.562Z,27.30
2018-04-09T00:26:32.006Z,28.33
2018-04-09T00:28:59.450Z,27.37
2018-04-09T00:31:27.651Z,27.83
2018-04-09T00:33:55.100Z,28.30
2018-04-09T00:36:22.541Z,27.20
2018-04-09T00:38:49.987Z,28.17
2018-04-09T00:41:18.185Z,28.80
2018-04-09T00:43:46.597Z,28.70
2018-04-09T00:46:14.046Z,28.38
2018-04-09T00:48:41.482Z,29.00
2018-04-09T00:51:08.919Z,30.02
2018-04-09T00:53:48.294Z,28.45
2018-04-09T00:56:15.731Z,28.70
2018-04-09T00:58:43.191Z,27.90
2018-04-09T01:01:10.703Z,29.80
2018-04-09T01:03:38.129Z,29.33
2018-04-09T01:06:05.574Z,28.83
2018-04-09T01:08:33.042Z,29.55
2018-04-09T01:11:00.478Z,29.27
2018-04-09T01:13:27.942Z,31.00
2018-04-09T01:15:55.390Z,30.92
2018-04-09T01:18:23.357Z,29.80
2018-04-09T01:20:50.802Z,29.90
2018-04-09T01:23:18.246Z,29.30
2018-04-09T01:25:45.739Z,30.88
2018-04-09T01:28:13.186Z,30.88
2018-04-09T01:30:40.628Z,31.55
2018-04-09T01:33:08.058Z,31.02
2018-04-09T01:35:36.293Z,32.67
2018-04-09T01:38:03.735Z,29.75
2018-04-09T01:40:31.179Z,31.10
2018-04-09T01:42:58.610Z,30.75
2018-04-09T01:45:26.058Z,32.83
2018-04-09T01:47:54.269Z,32.72
2018-04-09T01:50:21.715Z,33.92
2018-04-09T01:52:49.153Z,35.92
2018-04-09T01:55:16.594Z,37.45
2018-04-09T01:57:44.798Z,35.38
2018-04-09T02:00:12.294Z,40.22
2018-04-09T02:02:39.732Z,36.13
2018-04-09T02:05:07.168Z,36.35
2018-04-09T02:07:34.605Z,35.95
2018-04-09T02:10:02.111Z,35.47
2018-04-09T02:12:29.554Z,36.60
2018-04-09T02:14:57.030Z,35.70
2018-04-09T02:17:24.479Z,37.45
2018-04-09T02:19:51.937Z,37.15
2018-04-09T02:22:19.371Z,35.53
2018-04-09T02:24:46.817Z,35.35
2018-04-09T02:27:14.247Z,36.70
2018-04-09T02:29:42.450Z,35.83
2018-04-09T02:32:09.919Z,34.80
2018-04-09T02:34:37.488Z,35.60
2018-04-09T02:37:04.926Z,36.65
2018-04-09T02:39:32.401Z,36.40
2018-04-09T02:41:59.857Z,36.88
2018-04-09T02:44:27.289Z,36.42
2018-04-09T02:46:54.729Z,38.45
2018-04-09T02:49:22.228Z,37.33
2018-04-09T02:51:49.623Z,35.72
2018-04-09T02:54:17.833Z,38.90
2018-04-09T02:56:45.306Z,37.33
2018-04-09T02:59:12.745Z,36.58
2018-04-09T03:01:40.202Z,37.83
2018-04-09T03:04:07.635Z,36.85
2018-04-09T03:06:35.097Z,36.90
2018-04-09T03:09:02.587Z,35.80
2018-04-09T03:11:30.049Z,35.92
2018-04-09T03:13:58.265Z,35.45
2018-04-09T03:16:26.499Z,36.47
2018-04-09T03:18:53.952Z,35.58
2018-04-09T03:21:21.417Z,36.55
2018-04-09T03:23:48.850Z,37.67
2018-04-09T03:26:16.297Z,35.60
2018-04-09T03:28:43.730Z,36.20
2018-04-09T03:31:11.197Z,36.15
2018-04-09T03:33:38.669Z,37.28
2018-04-09T03:36:06.094Z,36.90
2018-04-09T03:38:34.313Z,36.88
2018-04-09T03:41:01.861Z,39.28
2018-04-09T03:43:29.340Z,42.03
2018-04-09T03:45:56.782Z,39.77
2018-04-09T03:48:24.223Z,40.95
2018-04-09T03:50:51.662Z,39.00
2018-04-09T03:53:19.139Z,39.55
2018-04-09T03:55:46.558Z,41.87
2018-04-09T03:58:14.837Z,40.03
2018-04-09T04:00:42.242Z,41.35
2018-04-09T04:03:09.702Z,40.77
2018-04-09T04:05:37.144Z,40.65
2018-04-09T04:08:04.591Z,40.03
2018-04-09T04:10:32.037Z,39.90
2018-04-09T04:12:59.523Z,41.60
2018-04-09T04:15:38.889Z,41.97
2018-04-09T04:21:16.865Z,43.63
2018-04-09T04:23:44.356Z,41.85
2018-04-09T04:26:11.794Z,40.30
2018-04-09T04:28:39.438Z,41.35
2018-04-09T04:31:06.897Z,42.62
2018-04-09T04:33:34.314Z,42.45
2018-04-09T04:36:02.514Z,43.10
2018-04-09T04:38:29.954Z,40.33
2018-04-09T04:40:57.397Z,40.33
2018-04-09T04:43:25.624Z,41.15
2018-04-09T04:45:53.074Z,40.92
2018-04-09T04:48:20.623Z,39.85
2018-04-09T04:50:48.087Z,39.50
2018-04-09T04:53:15.518Z,40.47
2018-04-09T04:55:43.022Z,40.90
2018-04-09T04:58:10.464Z,41.47
2018-04-09T05:00:38.008Z,41.40
2018-04-09T05:03:10.284Z,41.70
2018-04-09T05:05:37.752Z,40.65
2018-04-09T05:08:05.186Z,42.22
2018-04-09T05:10:32.750Z,43.25
2018-04-09T05:13:00.194Z,42.97
2018-04-09T05:15:27.650Z,44.90
2018-04-09T05:17:55.097Z,42.17
2018-04-09T05:20:22.604Z,43.75
2018-04-09T05:22:50.058Z,43.00
2018-04-09T05:25:17.515Z,45.45
2018-04-09T05:27:44.948Z,43.93
2018-04-09T05:30:12.419Z,45.33
2018-04-09T05:32:39.859Z,43.30
2018-04-09T05:35:07.450Z,43.50
2018-04-09T05:37:35.010Z,47.62
2018-04-09T05:40:02.460Z,45.13
2018-04-09T05:42:30.008Z,45.47
2018-04-09T05:44:57.449Z,44.67
2018-04-09T05:47:24.914Z,47.70
2018-04-09T05:49:52.350Z,46.65
2018-04-09T05:52:19.839Z,43.65
2018-04-09T05:54:47.296Z,43.90
2018-04-09T05:57:14.829Z,45.63
2018-04-09T05:59:42.283Z,45.38
2018-04-09T06:02:09.743Z,40.73
2018-04-09T06:04:37.179Z,44.08
2018-04-09T06:07:04.622Z,43.97
2018-04-09T06:09:32.834Z,43.85
2018-04-09T06:12:00.283Z,43.22
2018-04-09T06:14:27.773Z,45.53
2018-04-09T06:16:55.198Z,42.77
2018-04-09T06:19:22.651Z,42.83
2018-04-09T06:21:50.208Z,43.53
2018-04-09T06:24:17.767Z,42.70
2018-04-09T06:26:45.224Z,42.00
2018-04-09T06:29:12.654Z,46.28
2018-04-09T06:31:40.105Z,44.28
2018-04-09T06:34:08.311Z,45.88
2018-04-09T06:36:35.750Z,45.83
2018-04-09T06:39:03.191Z,44.47
2018-04-09T06:41:31.398Z,45.87
2018-04-09T06:43:58.846Z,46.53
2018-04-09T06:46:26.318Z,44.77
2018-04-09T06:48:53.764Z,42.67
2018-04-09T06:51:21.219Z,43.55
2018-04-09T06:53:48.660Z,45.57
2018-04-09T06:56:16.133Z,44.10
2018-04-09T06:58:43.570Z,43.15
2018-04-09T07:01:11.024Z,43.33
2018-04-09T07:03:38.476Z,43.08
2018-04-09T07:06:06.682Z,43.45
2018-04-09T07:08:34.149Z,43.67
2018-04-09T07:11:01.601Z,44.00
2018-04-09T07:13:29.151Z,42.67
2018-04-09T07:15:56.705Z,43.90
2018-04-09T07:18:24.118Z,40.97
2018-04-09T07:20:52.358Z,41.40
2018-04-09T07:23:19.893Z,40.50
2018-04-09T07:25:47.331Z,41.33
2018-04-09T07:28:14.760Z,40.17
2018-04-09T07:30:42.978Z,41.00
2018-04-09T07:33:10.768Z,41.08
2018-04-09T07:35:38.218Z,41.70
2018-04-09T07:38:05.680Z,40.15
2018-04-09T07:40:33.146Z,44.15
2018-04-09T07:43:00.603Z,40.45
2018-04-09T07:45:28.054Z,40.90
2018-04-09T07:47:55.498Z,39.37
2018-04-09T07:50:22.949Z,41.45
2018-04-09T07:52:50.509Z,41.92
2018-04-09T07:55:17.951Z,41.08
2018-04-09T07:57:45.370Z,41.72
2018-04-09T08:00:13.688Z,41.55
2018-04-09T08:02:41.139Z,40.33
2018-04-09T08:05:08.649Z,39.47
2018-04-09T08:07:36.094Z,41.10
2018-04-09T08:10:03.612Z,39.95
2018-04-09T08:12:31.059Z,42.95
2018-04-09T08:14:58.525Z,40.40
2018-04-09T08:17:25.954Z,40.25
2018-04-09T08:19:54.252Z,41.70
2018-04-09T08:22:21.694Z,42.85
2018-04-09T08:24:49.155Z,42.70
2018-04-09T08:27:16.592Z,43.17
2018-04-09T08:29:44.815Z,41.67
2018-04-09T08:32:12.258Z,42.27
2018-04-09T08:34:39.699Z,42.17
2018-04-09T08:37:07.151Z,41.65
2018-04-09T08:39:34.761Z,42.03
2018-04-09T08:42:02.206Z,42.80
2018-04-09T08:44:29.686Z,42.28
2018-04-09T08:46:57.148Z,43.42
2018-04-09T08:49:24.675Z,43.47
2018-04-09T08:51:52.162Z,41.42
2018-04-09T08:54:19.667Z,42.20
2018-04-09T08:56:47.110Z,42.03
2018-04-09T08:59:14.609Z,42.13
2018-04-09T09:01:42.059Z,42.13
2018-04-09T09:04:09.485Z,43.08
2018-04-09T09:06:36.926Z,42.50
2018-04-09T09:09:04.363Z,40.75
2018-04-09T09:11:32.579Z,42.80
2018-04-09T09:14:00.056Z,42.97
2018-04-09T09:16:27.597Z,42.67
2018-04-09T09:18:55.050Z,45.25
2018-04-09T09:21:22.526Z,136.40
2018-04-09T09:23:49.966Z,93.23
2018-04-09T09:26:17.414Z,57.65
2018-04-09T09:28:44.982Z,43.92
2018-04-09T09:31:12.453Z,45.88
2018-04-09T09:33:39.914Z,46.70
2018-04-09T09:36:07.376Z,47.57
2018-04-09T09:38:34.822Z,46.65
2018-04-09T09:41:02.261Z,45.88
2018-04-09T09:43:29.700Z,45.80
2018-04-09T09:45:57.927Z,45.70
2018-04-09T09:48:25.354Z,46.10
2018-04-09T09:50:52.834Z,46.57
2018-04-09T09:53:20.374Z,47.20
2018-04-09T09:55:47.820Z,44.45
2018-04-09T09:58:15.260Z,45.42
2018-04-09T10:00:47.572Z,74.45
2018-04-09T10:03:20.698Z,47.70
2018-04-09T10:05:48.909Z,47.70
2018-04-09T10:08:16.365Z,46.15
2018-04-09T10:10:43.811Z,44.47
2018-04-09T10:13:11.262Z,45.25
2018-04-09T10:15:38.702Z,87.73
2018-04-09T10:18:06.923Z,53.95
2018-04-09T10:20:34.362Z,48.60
2018-04-09T10:23:01.815Z,45.58
2018-04-09T10:25:29.281Z,43.70
2018-04-09T10:27:56.728Z,43.50
2018-04-09T10:30:24.162Z,43.50
2018-04-09T10:32:52.378Z,42.08
2018-04-09T10:35:19.839Z,43.72
2018-04-09T10:37:47.290Z,43.00
2018-04-09T10:40:14.768Z,43.22
2018-04-09T10:42:42.222Z,42.50
2018-04-09T10:45:09.761Z,40.17
2018-04-09T10:47:37.217Z,39.67
2018-04-09T10:50:04.675Z,40.90
2018-04-09T10:52:32.122Z,41.55
2018-04-09T10:54:59.554Z,41.50
2018-04-09T10:57:27.017Z,39.70
2018-04-09T10:59:54.470Z,41.90
2018-04-09T11:02:21.916Z,41.47
2018-04-09T11:04:49.354Z,40.92
2018-04-09T11:07:17.567Z,41.92
2018-04-09T11:09:45.007Z,41.97
2018-04-09T11:12:12.450Z,41.37
2018-04-09T11:14:39.901Z,39.88
2018-04-09T11:17:08.108Z,39.47
2018-04-09T11:19:35.587Z,41.27
2018-04-09T11:22:03.022Z,41.20
2018-04-09T11:24:30.458Z,40.90
2018-04-09T11:26:57.963Z,38.15
2018-04-09T11:29:25.424Z,38.30
2018-04-09T11:31:52.872Z,45.55
2018-04-09T11:34:20.310Z,38.20
2018-04-09T11:36:47.766Z,38.90
2018-04-09T11:39:15.193Z,38.45
2018-04-09T11:41:42.674Z,39.17
2018-04-09T11:44:10.116Z,39.35
2018-04-09T11:46:37.588Z,38.33
2018-04-09T11:49:05.043Z,38.97
2018-04-09T11:51:32.472Z,43.30
2018-04-09T11:53:59.924Z,38.72
2018-04-09T11:56:28.233Z,42.50
2018-04-09T11:58:55.675Z,41.17
2018-04-09T12:01:23.112Z,39.97
2018-04-09T12:03:51.330Z,40.53
2018-04-09T12:06:18.764Z,43.28
2018-04-09T12:08:46.212Z,41.10
2018-04-09T12:11:13.704Z,41.10
2018-04-09T12:13:41.221Z,41.22
2018-04-09T12:16:08.667Z,41.10
2018-04-09T12:18:36.893Z,41.45
2018-04-09T12:21:04.329Z,42.72
2018-04-09T12:23:31.781Z,40.60
2018-04-09T12:25:59.356Z,40.65
2018-04-09T12:28:26.788Z,39.00
2018-04-09T12:30:54.285Z,41.78
2018-04-09T12:33:21.731Z,40.97
2018-04-09T12:35:49.197Z,41.30
2018-04-09T12:38:16.632Z,41.43
2018-04-09T12:40:44.089Z,40.42
2018-04-09T12:43:11.540Z,39.33
2018-04-09T12:45:39.100Z,48.35
2018-04-09T12:48:06.657Z,40.65
2018-04-09T12:50:34.093Z,40.78
2018-04-09T12:53:01.546Z,38.30
2018-04-09T12:55:28.993Z,37.10
2018-04-09T12:57:57.196Z,39.30
2018-04-09T13:00:24.674Z,37.65
2018-04-09T13:02:52.136Z,39.78
2018-04-09T13:05:19.620Z,38.63
2018-04-09T13:07:47.044Z,38.97
2018-04-09T13:10:14.480Z,38.08
2018-04-09T13:12:42.034Z,65.75
2018-04-09T13:15:09.490Z,40.70
2018-04-09T13:17:36.921Z,37.78
2018-04-09T13:20:04.371Z,38.78
2018-04-09T13:22:32.679Z,38.53
2018-04-09T13:25:00.104Z,37.70
2018-04-09T13:27:28.323Z,38.35
2018-04-09T13:29:55.780Z,37.33
2018-04-09T13:32:23.224Z,37.13
2018-04-09T13:34:50.677Z,34.75
2018-04-09T13:37:18.173Z,32.50
2018-04-09T13:39:45.692Z,33.97
2018-04-09T13:42:13.157Z,42.23
2018-04-09T13:44:40.588Z,32.90
2018-04-09T13:47:08.784Z,34.10
2018-04-09T13:49:36.228Z,33.37
2018-04-09T13:52:03.688Z,38.45
2018-04-09T13:54:31.145Z,33.40
2018-04-09T13:56:58.576Z,34.55
2018-04-09T13:59:26.043Z,34.95
2018-04-09T14:01:54.333Z,34.58
2018-04-09T14:04:21.764Z,37.17
2018-04-09T14:06:49.209Z,36.13
2018-04-09T14:09:17.420Z,33.97
2018-04-09T14:11:44.979Z,34.10
2018-04-09T14:14:12.408Z,32.33
2018-04-09T14:16:39.855Z,34.35
2018-04-09T14:19:08.093Z,34.95
2018-04-09T14:21:35.623Z,32.03
2018-04-09T14:24:03.056Z,31.10
2018-04-09T14:26:30.500Z,31.90
2018-04-09T14:28:58.723Z,31.87
2018-04-09T14:31:26.164Z,33.42
2018-04-09T14:33:53.660Z,31.90
2018-04-09T14:39:11.920Z,28.87
2018-04-09T14:41:39.364Z,27.67
2018-04-09T14:44:06.850Z,27.98
2018-04-09T14:46:34.375Z,45.33
2018-04-09T14:49:01.822Z,27.52
2018-04-09T14:51:29.676Z,40.12
2018-04-09T14:53:57.117Z,34.45
2018-04-09T14:56:24.595Z,34.13
2018-04-09T14:58:52.024Z,35.60
2018-04-09T15:01:19.616Z,28.58
2018-04-09T15:03:47.063Z,27.13
2018-04-09T15:06:14.518Z,30.62
2018-04-09T15:08:41.974Z,30.10
2018-04-09T15:11:09.450Z,29.17
2018-04-09T15:13:36.904Z,29.27
2018-04-09T15:16:04.385Z,29.90
2018-04-09T15:18:31.827Z,30.20
2018-04-09T15:20:59.267Z,29.23
2018-04-09T15:23:26.712Z,28.52
2018-04-09T15:25:54.373Z,29.77
2018-04-09T15:28:21.853Z,29.20
2018-04-09T15:30:49.253Z,27.55
2018-04-09T15:33:17.579Z,26.33
2018-04-09T15:35:44.996Z,24.95
2018-04-09T15:38:12.460Z,24.33
2018-04-09T15:40:40.752Z,23.42
2018-04-09T15:43:08.192Z,22.67
2018-04-09T15:45:36.387Z,22.50
2018-04-09T15:48:03.938Z,20.95
2018-04-09T15:50:31.396Z,21.20
2018-04-09T15:52:58.848Z,21.17
2018-04-09T15:55:26.298Z,22.45
2018-04-09T15:57:53.761Z,21.85
2018-04-09T16:00:21.216Z,22.90
2018-04-09T16:02:48.679Z,24.00
2018-04-09T16:05:16.242Z,22.98
2018-04-09T16:07:43.793Z,25.55
2018-04-09T16:10:11.238Z,23.38
2018-04-09T16:12:38.669Z,23.15
2018-04-09T16:15:06.982Z,22.33
2018-04-09T16:17:34.409Z,23.50
2018-04-09T16:20:01.873Z,27.70
2018-04-09T16:22:29.314Z,38.55
2018-04-09T16:24:57.549Z,45.80
2018-04-09T16:27:24.984Z,46.58
2018-04-09T16:29:52.435Z,47.10
2018-04-09T16:32:19.872Z,48.78
2018-04-09T16:34:47.323Z,49.13
2018-04-09T16:37:15.548Z,50.75
2018-04-09T16:39:43.004Z,54.10
2018-04-09T16:42:10.480Z,54.60
2018-04-09T16:44:37.904Z,55.33
2018-04-09T16:47:05.354Z,58.08
2018-04-09T16:49:32.906Z,54.63
2018-04-09T16:52:00.344Z,55.12
2018-04-09T16:54:28.555Z,55.58
2018-04-09T16:56:56.196Z,55.10
2018-04-09T16:59:23.628Z,55.90
2018-04-09T17:01:51.081Z,57.10
2018-04-09T17:04:19.321Z,57.40
2018-04-09T17:06:46.843Z,55.70
2018-04-09T17:09:14.413Z,58.17
2018-04-09T17:11:41.835Z,57.85
2018-04-09T17:14:09.284Z,55.05
2018-04-09T17:16:36.736Z,58.00
2018-04-09T17:19:04.941Z,59.75
2018-04-09T17:21:32.399Z,58.28
2018-04-09T17:23:59.838Z,59.38
2018-04-09T17:26:27.298Z,59.17
2018-04-09T17:28:54.729Z,59.27
2018-04-09T17:31:22.976Z,61.10
2018-04-09T17:33:50.426Z,58.95
2018-04-09T17:36:17.956Z,59.65
2018-04-09T17:38:45.409Z,57.35
2018-04-09T17:41:12.860Z,54.67
2018-04-09T17:43:40.348Z,52.97
2018-04-09T17:46:07.883Z,53.90
2018-04-09T17:48:35.312Z,54.58
2018-04-09T17:51:02.832Z,53.80
2018-04-09T17:53:30.355Z,50.92
2018-04-09T17:55:57.819Z,51.90
2018-04-09T17:58:25.268Z,51.37
2018-04-09T18:00:52.723Z,51.55
2018-04-09T18:03:20.211Z,51.60
2018-04-09T18:05:47.757Z,53.57
2018-04-09T18:08:15.297Z,53.72
2018-04-09T18:10:42.736Z,55.95
2018-04-09T18:13:10.207Z,56.23
2018-04-09T18:15:37.803Z,54.95
2018-04-09T18:18:05.257Z,55.25
2018-04-09T18:20:32.852Z,55.60
2018-04-09T18:23:00.364Z,55.08
2018-04-09T18:25:27.808Z,54.30
2018-04-09T18:27:55.265Z,54.63
2018-04-09T18:30:22.703Z,53.83
2018-04-09T18:32:50.169Z,54.00
2018-04-09T18:35:17.604Z,52.13
2018-04-09T18:37:45.180Z,50.97
2018-04-09T18:40:12.678Z,49.45
2018-04-09T18:42:40.111Z,50.37
2018-04-09T18:45:07.602Z,51.08
2018-04-09T18:47:35.033Z,52.83
2018-04-09T18:50:02.499Z,51.45
2018-04-09T18:52:29.953Z,51.20
2018-04-09T18:54:57.388Z,50.97
2018-04-09T18:57:24.839Z,51.25
2018-04-09T18:59:52.276Z,52.40
2018-04-09T19:02:19.849Z,54.30
2018-04-09T19:04:47.264Z,55.33
2018-04-09T19:07:15.580Z,52.83
2018-04-09T19:09:43.008Z,52.13
2018-04-09T19:12:10.512Z,54.47
2018-04-09T19:14:37.964Z,53.90
2018-04-09T19:17:05.438Z,54.60
2018-04-09T19:19:32.969Z,52.92
2018-04-09T19:22:00.412Z,54.35
2018-04-09T19:24:27.848Z,56.05
2018-04-09T19:26:56.069Z,55.50
2018-04-09T19:29:23.528Z,57.07
2018-04-09T19:31:50.992Z,55.67
2018-04-09T19:34:18.439Z,58.65
2018-04-09T19:36:51.567Z,58.80
2018-04-09T19:39:25.452Z,60.35
2018-04-09T19:41:52.910Z,59.97
2018-04-09T19:44:20.452Z,60.80
2018-04-09T19:46:47.896Z,60.00
2018-04-09T19:49:15.346Z,61.10
2018-04-09T19:51:42.817Z,61.00
2018-04-09T19:54:10.253Z,60.65
2018-04-09T19:56:37.733Z,61.25
2018-04-09T19:59:05.189Z,61.67
2018-04-09T20:01:32.657Z,62.03
2018-04-09T20:04:00.097Z,59.80
2018-04-09T20:06:27.540Z,62.22
2018-04-09T20:08:55.015Z,61.22
2018-04-09T20:11:22.562Z,62.45
2018-04-09T20:13:50.031Z,61.55
2018-04-09T20:16:17.464Z,60.17
2018-04-09T20:18:44.914Z,61.47
2018-04-09T20:21:12.365Z,61.15
2018-04-09T20:23:39.809Z,57.40
2018-04-09T20:26:07.389Z,61.33
2018-04-09T20:28:34.817Z,60.63
2018-04-09T20:31:03.016Z,60.80
2018-04-09T20:33:30.509Z,60.70
2018-04-09T20:35:57.972Z,59.05
2018-04-09T20:38:25.436Z,60.97
2018-04-09T20:40:52.874Z,59.30
2018-04-09T20:43:20.308Z,60.10
2018-04-09T20:45:47.793Z,59.20
2018-04-09T20:48:15.246Z,60.17
2018-04-09T20:50:42.704Z,60.75
2018-04-09T20:53:10.248Z,60.60
2018-04-09T20:55:37.684Z,61.90
2018-04-09T20:58:05.160Z,59.80
2018-04-09T21:00:32.602Z,60.40
2018-04-09T21:03:00.046Z,60.25
2018-04-09T21:05:27.497Z,60.87
2018-04-09T21:07:54.992Z,61.95
2018-04-09T21:10:22.443Z,60.58
2018-04-09T21:12:49.888Z,60.20
2018-04-09T21:15:17.332Z,59.08
2018-04-09T21:17:44.780Z,61.80
2018-04-09T21:20:12.256Z,60.63
2018-04-09T21:22:39.700Z,61.65
2018-04-09T21:25:07.148Z,61.00
2018-04-09T21:27:34.648Z,63.83
2018-04-09T21:30:02.105Z,60.80
2018-04-09T21:32:29.558Z,60.40
2018-04-09T21:34:56.992Z,61.67
2018-04-09T21:37:24.440Z,62.03
2018-04-09T21:39:51.888Z,62.10
2018-04-09T21:42:19.331Z,60.28
2018-04-09T21:44:47.562Z,60.92
2018-04-09T21:47:15.012Z,61.90
2018-04-09T21:49:42.496Z,62.60
2018-04-09T21:52:09.897Z,63.00
2018-04-09T21:54:37.381Z,61.75
2018-04-09T21:57:04.923Z,61.58
2018-04-09T21:59:32.403Z,63.10
2018-04-09T22:01:59.839Z,60.63
2018-04-09T22:04:27.285Z,61.22
2018-04-09T22:06:54.770Z,63.13
2018-04-09T22:09:22.216Z,62.08
2018-04-09T22:11:49.672Z,60.90
2018-04-09T22:14:17.116Z,63.38
2018-04-09T22:16:44.589Z,59.72
2018-04-09T22:19:12.052Z,59.88
2018-04-09T22:21:39.616Z,61.17
2018-04-09T22:24:07.059Z,60.72
2018-04-09T22:26:34.523Z,60.70
2018-04-09T22:29:01.965Z,60.22
2018-04-09T22:31:29.816Z,60.00
2018-04-09T22:33:57.248Z,59.67
2018-04-09T22:36:24.696Z,58.95
2018-04-09T22:38:52.910Z,61.28
2018-04-09T22:41:20.358Z,60.22
2018-04-09T22:43:47.805Z,61.85
2018-04-09T22:46:15.246Z,62.40
2018-04-09T22:48:43.456Z,62.17
2018-04-09T22:51:10.906Z,60.33
2018-04-09T22:53:38.489Z,60.97
2018-04-09T22:56:05.934Z,59.92
2018-04-09T22:58:33.384Z,59.45
2018-04-09T23:01:00.855Z,60.83
2018-04-09T23:03:28.927Z,59.30
2018-04-09T23:05:56.369Z,60.05
2018-04-09T23:08:23.833Z,61.03
2018-04-09T23:10:51.389Z,59.28
2018-04-09T23:13:18.845Z,60.80
2018-04-09T23:15:46.312Z,59.63
2018-04-09T23:18:13.760Z,58.95
2018-04-09T23:20:41.229Z,56.88
2018-04-09T23:23:08.696Z,59.85
2018-04-09T23:25:36.133Z,57.63
2018-04-09T23:28:03.586Z,57.60
2018-04-09T23:30:31.024Z,59.63
2018-04-09T23:32:58.477Z,58.03
2018-04-09T23:35:25.900Z,59.85
2018-04-09T23:37:54.116Z,58.70
2018-04-09T23:40:21.552Z,56.27
2018-04-09T23:42:48.992Z,57.75
2018-04-09T23:45:16.604Z,56.70
2018-04-09T23:47:44.078Z,57.62
2018-04-09T23:50:11.584Z,57.73
2018-04-09T23:52:39.041Z,55.17
2018-04-09T23:55:06.526Z,55.17
2018-04-09T23:57:33.981Z,54.45
